Flight Track Log - Related Links

Times and Time Zones

All times are in EST time to prevent confusion due to time zone crossing. See the UAL1116 flight status page for this flight to view local times or setup timezone preferences in your user account.

Time Position Orientation Groundspeed Altitude Reporting Facility
EST Latitude Longitude Course Direction KTS MPH feet Rate Location/Type
Tue 11:43:46 PM 37.6333 -122.3667 133° Southeast 171 197 800  Level Northern Cal TRACON
Tue 11:44:40 PM 37.6833 -122.3667 360° North 223 257 2,900 2,474 Climbing Northern Cal TRACON
Tue 11:45:40 PM 37.7333 -122.4000 332° Northwest 273 314 5,500 2,900 Climbing Northern Cal TRACON
Tue 11:46:00 PM 37.3433 -122.2186 136° Southeast  Level FlightAware Approximate
Tue 11:46:40 PM 37.6833 -122.4667 227° Southwest 295 339 8,700  Level Northern Cal TRACON
Tue 11:47:00 PM 37.2623 -122.1123 141° Southeast  Level FlightAware Approximate
Tue 11:48:00 PM 37.1903 -121.9963 132° Southeast  Level FlightAware Approximate
Tue 11:49:00 PM 37.1154 -121.8983 133° Southeast  Level FlightAware Approximate
Tue 11:49:02 PM 37.6231 -122.2294 108° East 351 404 11,600  Level Oakland Center
Tue 11:50:02 PM 37.5886 -122.1100 110° East 362 417 14,200 2,816 Climbing Oakland Center
Tue 11:50:40 PM 37.5667 -122.0333 110° East 380 437 16,200 2,505 Climbing Northern Cal TRACON
Tue 11:53:04 PM 37.4747 -121.7278 111° Southeast 393 452 21,800 2,195 Climbing Oakland Center
Tue 11:54:05 PM 37.4356 -121.5947 110° East 403 464 23,700 1,770 Climbing Oakland Center
Tue 11:55:06 PM 37.3939 -121.4569 111° Southeast 418 481 25,400 1,587 Climbing Oakland Center
Tue 11:56:06 PM 37.3525 -121.3225 111° Southeast 430 495 26,900 1,339 Climbing Oakland Center
Tue 11:57:07 PM 37.3078 -121.1767 111° Southeast 444 511 28,100 1,180 Climbing Oakland Center
Tue 11:58:08 PM 37.2522 -120.9925 111° Southeast 466 536 29,300 1,240 Climbing Oakland Center
Tue 11:59:08 PM 37.2036 -120.8339 111° Southeast 484 557 30,600 843 Climbing Oakland Center
Wed 12:00:09 AM 37.1553 -120.6764 111° Southeast 485 558 31,000 197 Climbing Oakland Center
Wed 12:01:10 AM 37.1072 -120.5206 111° Southeast 481 554 31,000  Level Oakland Center
Wed 12:02:10 AM 37.0583 -120.3667 112° Southeast 479 551 31,000  Level Oakland Center
Wed 12:03:11 AM 37.0092 -120.2117 112° Southeast 479 551 31,000  Level Oakland Center
Wed 12:04:12 AM 36.9633 -120.0611 111° Southeast 481 554 31,000  Level Oakland Center
Wed 12:05:12 AM 36.9133 -119.9061 112° Southeast 481 554 31,000 -50 Level Oakland Center
Wed 12:06:13 AM 36.8742 -119.7478 107° East 477 549 30,900  Descending Oakland Center
Wed 12:07:14 AM 36.8483 -119.5842 101° East 479 551 31,000 50 Climbing Oakland Center
Wed 12:08:14 AM 36.8217 -119.4208 101° East 479 551 31,000  Level Oakland Center
Wed 12:09:15 AM 36.7953 -119.2583 101° East 478 550 31,000  Level Oakland Center
Wed 12:10:16 AM 36.7694 -119.0964 101° East 478 550 31,000 -49 Level Oakland Center
Wed 12:11:17 AM 36.7428 -118.9328 101° East 480 552 30,900 -50 Descending Oakland Center
Wed 12:12:17 AM 36.7156 -118.7711 102° East 478 550 30,900 50 Level Oakland Center
Wed 12:13:18 AM 36.6917 -118.6111 101° East 473 544 31,000 49 Climbing Oakland Center
Wed 12:14:19 AM 36.6631 -118.4458 102° East 476 548 31,000  Level Oakland Center
Wed 12:14:49 AM 36.6450 -118.3419 102° East 482 555 31,000  Level Los Angeles Center
Wed 12:15:50 AM 36.6181 -118.1811 102° East 480 552 31,000  Level Los Angeles Center
Wed 12:16:51 AM 36.5900 -118.0228 102° East 476 548 31,000  Level Los Angeles Center
Wed 12:17:52 AM 36.5631 -117.8628 102° East 474 545 31,000  Level Los Angeles Center
Wed 12:18:52 AM 36.5353 -117.7061 102° East 471 542 31,000 -446 Level Los Angeles Center
Wed 12:19:53 AM 36.5075 -117.5483 102° East 469 540 30,100 -934 Descending Los Angeles Center
Wed 12:20:54 AM 36.4794 -117.3947 103° East 465 535 29,100 -590 Descending Los Angeles Center
Wed 12:21:55 AM 36.4519 -117.2411 103° East 461 531 28,900 -541 Descending Los Angeles Center
Wed 12:22:56 AM 36.4244 -117.0908 103° East 456 525 28,000 -885 Descending Los Angeles Center
Wed 12:23:57 AM 36.3961 -116.9367 103° East 454 522 27,100 -992 Descending Los Angeles Center
Wed 12:24:57 AM 36.3681 -116.7792 102° East 461 531 26,000 -1,041 Descending Los Angeles Center
Wed 12:25:58 AM 36.3400 -116.6283 103° East 456 525 25,000 -1,426 Descending Los Angeles Center
Wed 12:26:59 AM 36.3072 -116.4514 103° East 444 511 23,100 -1,377 Descending Los Angeles Center
Wed 12:28:00 AM 36.2803 -116.3078 103° East 433 498 22,200 -1,377 Descending Los Angeles Center
Wed 12:29:01 AM 36.2525 -116.1672 104° East 428 493 20,300 -2,044 Descending Los Angeles Center
Wed 12:29:31 AM 36.2386 -116.0944 103° East 431 496 19,100 -2,200 Descending Los Angeles Center
Wed 12:30:01 AM 36.2269 -116.0292 102° East 414 476 18,100 -2,000 Descending Los Angeles Center
Wed 12:30:19 AM 36.2189 -115.9889 104° East 417 480 17,500 -2,066 Descending Los Angeles Center
Wed 12:31:02 AM 36.1978 -115.8819 104° East 412 474 16,000 -1,475 Descending Los Angeles Center
Wed 12:31:20 AM 36.1825 -115.8464 118° Southeast 403 464 16,000 -787 Level Los Angeles Center
Wed 12:32:03 AM 36.1544 -115.7558 111° Southeast 401 461 15,200 -1,200 Descending Los Angeles Center
Wed 12:32:15 AM 36.1486 -115.7375 112° Southeast 395 455 14,900 -1,967 Descending Los Angeles Center
Wed 12:33:04 AM 36.1153 -115.6353 112° Southeast 385 443 13,200 -2,167 Descending Los Angeles Center
Wed 12:33:27 AM 36.0997 -115.5886 112° Southeast 387 445 12,300 -1,500 Descending Los Angeles Center
Wed 12:34:04 AM 36.0758 -115.5128 111° Southeast 385 443 11,700 -885 Descending Los Angeles Center
Wed 12:34:28 AM 36.0617 -115.4708 113° Southeast 354 407 11,400 -590 Descending Los Angeles Center
Wed 12:35:05 AM 36.0411 -115.4044 111° Southeast 344 396 11,100 -436 Descending Los Angeles Center
Wed 12:35:23 AM 36.0322 -115.3742 110° East 318 366 11,000 -1,180 Descending Los Angeles Center
Wed 12:36:06 AM 36.0253 -115.2967 96° East 331 381 9,900 -1,111 Descending Los Angeles Center
Wed 12:36:17 AM 36.0228 -115.2708 97° East 328 377 10,000 -1,500 Climbing Los Angeles Center
Wed 12:37:06 AM 36.0183 -115.1853 94° East 308 354 8,400 -1,869 Descending Los Angeles Center
Wed 12:37:18 AM 36.0164 -115.1719 100° East 299 344 8,100 -1,279 Descending Los Angeles Center
Wed 12:38:07 AM 36.0114 -115.0900 94° East 287 330 7,100 -1,455 Descending Los Angeles Center
Wed 12:38:24 AM 36.0094 -115.0600 95° East 280 322 6,500 -1,574 Descending Los Angeles Center
Wed 12:39:08 AM 36.0053 -114.9967 95° East 277 319 5,500 -1,091 Descending Los Angeles Center
Wed 12:39:19 AM 36.0061 -114.9758 87° East 262 302 5,500 -500 Level Los Angeles Center
Wed 12:40:08 AM 36.0392 -114.9472 35° Northeast 218 251 5,000 -492 Descending Los Angeles Center
Wed 12:40:20 AM 36.0508 -114.9531 338° Northwest 194 223 5,000 -689 Level Los Angeles Center
Wed 12:41:09 AM 36.0744 -114.9931 306° West 183 211 4,300 -909 Descending Los Angeles Center
Wed 12:41:26 AM 36.0739 -115.0092 268° West 177 204 4,000 -984 Descending Los Angeles Center
Wed 12:42:10 AM 36.0736 -115.0506 270° West 168 193 3,300 -984 Descending Los Angeles Center
Wed 12:42:27 AM 36.0736 -115.0678 270° West 161 185 3,000 -900 Descending Los Angeles Center
Wed 12:43:10 AM 36.0733 -115.1056 269° West 162 186 2,400 -885 Descending Los Angeles Center
Wed 12:43:28 AM 36.0731 -115.1239 269° West 162 186 2,100 -295 Descending Los Angeles Center
Wed 12:44:11 AM 36.0731 -115.1419 270° West 144 166 2,100  Level Los Angeles Center

Login

Don't have an account? Register now (free) for customized features, flight alerts, and more!